Volcan De Tauce — EAGW — position and weather

sailwx.info

Track history (hours):
 
Tides and Currents Weather Stations Pressure Air Temp Water Temp Dewpoint Dewpoint Depression Visibility Wind Speed Wind Dir Waves Ship Positions

Volcan De Tauce

Last reported at 2015-Jul-28 14:33 UTC. Time now 2015-Jul-28 15:19 UTC.
Position N 28°03' W 014°53'.

Length 120 m; draft 4.8 m.

Type: Passenger vessel. MMSI: 224761000.

Date/timePositionNaut miles runAvg speedWind from/ knotsBaromVisibWave heightAir tempDewpointWater temp
2015-Jul-28 14:33N 28°03' W 014°53'1717.0
2015-Jul-28 13:33N 28°02' W 014°34'1716.1
2015-Jul-28 12:32N 28°04' W 014°15'1616.5
2015-Jul-28 11:33N 28°11' W 013°59'16 2.7
2015-Jul-28 05:30N 28°25' W 013°49'1614.5
2015-Jul-28 04:23N 28°11' W 013°58'1416.4
2015-Jul-28 03:30N 28°04' W 014°13'1414.8
2015-Jul-28 02:32N 28°02' W 014°29'1515.2
2015-Jul-28 01:33N 28°03' W 014°46'1515.5
2015-Jul-28 00:34N 28°05' W 015°03'1615.9
2015-Jul-27 23:33N 28°07' W 015°21'4 3.4
2015-Jul-27 22:32N 28°08' W 015°25'0 0.0
2015-Jul-27 21:32N 28°08' W 015°25'0 0.0
2015-Jul-27 20:23N 28°08' W 015°25'0 0.0
2015-Jul-27 19:26N 28°08' W 015°25'0 0.0
2015-Jul-27 18:11N 28°08' W 015°25'0 0.0
2015-Jul-27 17:29N 28°08' W 015°25'0 0.0
2015-Jul-27 16:26N 28°08' W 015°25'0 0.0
2015-Jul-27 15:29N 28°08' W 015°25'0 0.0
2015-Jul-27 14:32N 28°08' W 015°25'0 0.0
2015-Jul-27 13:32N 28°08' W 015°25'0 0.0
2015-Jul-27 12:32N 28°08' W 015°25'0 0.0
2015-Jul-27 11:32N 28°08' W 015°25'  
2015-Jul-24 17:11N 28°08' W 015°25'0 0.0
2015-Jul-24 16:33N 28°08' W 015°25'1111.4
2015-Jul-24 15:33N 28°06' W 015°12'1616.1
2015-Jul-24 14:33N 28°04' W 014°54'1716.6
2015-Jul-24 13:33N 28°02' W 014°35'1616.5
2015-Jul-24 12:33N 28°02' W 014°17'1717.1
2015-Jul-24 11:33N 28°11' W 013°60'1716.8
2015-Jul-24 10:32N 28°25' W 013°49'1 0.2
2015-Jul-24 05:28N 28°24' W 013°49'1415.1
2015-Jul-24 04:34N 28°12' W 013°56'1616.4
2015-Jul-24 03:33N 28°04' W 014°12'1515.4
2015-Jul-24 02:34N 28°01' W 014°29'1514.9
2015-Jul-24 01:33N 28°02' W 014°46'1515.1
2015-Jul-24 00:33N 28°04' W 015°03'1615.9
2015-Jul-23 23:33N 28°07' W 015°21'4 3.9
2015-Jul-23 22:33N 28°08' W 015°25'0 0.0
2015-Jul-23 21:33N 28°08' W 015°25'0 0.0
2015-Jul-23 20:33N 28°08' W 015°25'0 0.0
2015-Jul-23 19:33N 28°08' W 015°25'0 0.0
2015-Jul-23 18:33N 28°08' W 015°25'0 0.0
2015-Jul-23 17:33N 28°08' W 015°25'0 0.0
2015-Jul-23 16:33N 28°08' W 015°25'1110.8
2015-Jul-23 15:33N 28°05' W 015°13'1615.8
2015-Jul-23 14:34N 28°03' W 014°55'1716.5
2015-Jul-23 13:34N 28°02' W 014°37'1716.6
2015-Jul-23 12:34N 28°02' W 014°18'1716.8
2015-Jul-23 11:33N 28°10' W 014°01'20 3.2
2015-Jul-23 05:24N 28°27' W 013°49'1415.5
2015-Jul-23 04:30N 28°14' W 013°54'2116.5
2015-Jul-23 03:15N 28°03' W 014°14'1215.3
2015-Jul-23 02:29N 28°02' W 014°27'1915.0
2015-Jul-23 01:15N 28°03' W 014°48'1115.4
2015-Jul-23 00:33N 28°04' W 015°01'1615.8
2015-Jul-22 23:33N 28°07' W 015°18'6 5.9
2015-Jul-22 22:33N 28°08' W 015°25'0 0.0
2015-Jul-22 21:24N 28°08' W 015°25'0 0.0
2015-Jul-22 20:27N 28°08' W 015°25'0 0.0
2015-Jul-22 19:27N 28°08' W 015°25'0 0.0
2015-Jul-22 18:27N 28°08' W 015°25'0 0.0
2015-Jul-22 17:27N 28°08' W 015°25'0 0.0
2015-Jul-22 16:33N 28°08' W 015°25'1110.9
2015-Jul-22 15:33N 28°06' W 015°13'1615.8
2015-Jul-22 14:33N 28°04' W 014°55'1616.4
2015-Jul-22 13:34N 28°02' W 014°37'1716.5
2015-Jul-22 12:33N 28°02' W 014°18'1716.6
2015-Jul-22 11:34N 28°10' W 014°01'1716.5
2015-Jul-22 10:33N 28°23' W 013°50'4 0.8
2015-Jul-22 05:17N 28°27' W 013°49'1115.4
2015-Jul-22 04:33N 28°16' W 013°53'1616.1
2015-Jul-22 03:33N 28°07' W 014°07'2115.0
2015-Jul-22 02:10N 28°02' W 014°30'914.9
2015-Jul-22 01:33N 28°03' W 014°40'1515.4
2015-Jul-22 00:33N 28°04' W 014°58'1615.7
2015-Jul-21 23:33N 28°06' W 015°15'8 8.5
2015-Jul-21 22:34N 28°08' W 015°25'0 0.0
2015-Jul-21 21:34N 28°08' W 015°25'0 0.0
2015-Jul-21 20:33N 28°08' W 015°25'0 0.0
2015-Jul-21 19:33N 28°08' W 015°25'0 0.0
2015-Jul-21 18:33N 28°08' W 015°25'0 0.0
2015-Jul-21 17:33N 28°08' W 015°25'2 1.6
2015-Jul-21 16:33N 28°07' W 015°24'1515.4
2015-Jul-21 15:33N 28°05' W 015°06'1615.7
2015-Jul-21 14:33N 28°03' W 014°49'1616.1
2015-Jul-21 13:33N 28°02' W 014°31'1615.9
2015-Jul-21 12:32N 28°05' W 014°12'10 1.3
2015-Jul-21 04:28N 28°09' W 014°02'3114.7
2015-Jul-21 02:19N 28°02' W 014°37'1215.1
2015-Jul-21 01:34N 28°03' W 014°50'1515.2
2015-Jul-21 00:33N 28°05' W 015°07'1515.2
2015-Jul-20 23:33N 28°07' W 015°24'1 1.3
2015-Jul-20 22:34N 28°08' W 015°25'0 0.0
2015-Jul-20 21:34N 28°08' W 015°25'0 0.0
2015-Jul-20 20:34N 28°08' W 015°25'0 0.0
2015-Jul-20 19:34N 28°08' W 015°25'0 0.0
2015-Jul-20 18:34N 28°08' W 015°25'0 0.0
2015-Jul-20 17:33N 28°08' W 015°25'0 0.0
2015-Jul-20 16:33N 28°08' W 015°25'0 0.0
2015-Jul-20 15:33N 28°08' W 015°25'0 0.0
2015-Jul-20 14:33N 28°08' W 015°25'0 0.0
2015-Jul-20 13:33N 28°08' W 015°25'0 0.0
2015-Jul-20 12:33N 28°08' W 015°25'0 0.0
2015-Jul-20 11:33N 28°08' W 015°25'0 0.0
2015-Jul-20 10:33N 28°08' W 015°25'0 0.0
2015-Jul-20 09:34N 28°08' W 015°25'0 0.0
2015-Jul-19 14:33N 28°08' W 015°25'  
Track history (hours):
 
Tides and Currents Weather Stations Pressure Air Temp Water Temp Dewpoint Dewpoint Depression Visibility Wind Speed Wind Dir Waves Ship Positions

Volcan De Tauce

Last reported at 2015-Jul-28 14:33 UTC. Time now 2015-Jul-28 15:19 UTC.
Position N 28°03' W 014°53'.

Length 120 m; draft 4.8 m.

Type: Passenger vessel. MMSI: 224761000.

Date/timePositionNaut miles runAvg speedWind from/ knotsBaromVisibWave heightAir tempDewpointWater temp
2015-Jul-28 14:33N 28°03' W 014°53'1717.0
2015-Jul-28 13:33N 28°02' W 014°34'1716.1
2015-Jul-28 12:32N 28°04' W 014°15'1616.5
2015-Jul-28 11:33N 28°11' W 013°59'16 2.7
2015-Jul-28 05:30N 28°25' W 013°49'1614.5
2015-Jul-28 04:23N 28°11' W 013°58'1416.4
2015-Jul-28 03:30N 28°04' W 014°13'1414.8
2015-Jul-28 02:32N 28°02' W 014°29'1515.2
2015-Jul-28 01:33N 28°03' W 014°46'1515.5
2015-Jul-28 00:34N 28°05' W 015°03'1615.9
2015-Jul-27 23:33N 28°07' W 015°21'4 3.4
2015-Jul-27 22:32N 28°08' W 015°25'0 0.0
2015-Jul-27 21:32N 28°08' W 015°25'0 0.0
2015-Jul-27 20:23N 28°08' W 015°25'0 0.0
2015-Jul-27 19:26N 28°08' W 015°25'0 0.0
2015-Jul-27 18:11N 28°08' W 015°25'0 0.0
2015-Jul-27 17:29N 28°08' W 015°25'0 0.0
2015-Jul-27 16:26N 28°08' W 015°25'0 0.0
2015-Jul-27 15:29N 28°08' W 015°25'0 0.0
2015-Jul-27 14:32N 28°08' W 015°25'0 0.0
2015-Jul-27 13:32N 28°08' W 015°25'0 0.0
2015-Jul-27 12:32N 28°08' W 015°25'0 0.0
2015-Jul-27 11:32N 28°08' W 015°25'  
2015-Jul-24 17:11N 28°08' W 015°25'0 0.0
2015-Jul-24 16:33N 28°08' W 015°25'1111.4
2015-Jul-24 15:33N 28°06' W 015°12'1616.1
2015-Jul-24 14:33N 28°04' W 014°54'1716.6
2015-Jul-24 13:33N 28°02' W 014°35'1616.5
2015-Jul-24 12:33N 28°02' W 014°17'1717.1
2015-Jul-24 11:33N 28°11' W 013°60'1716.8
2015-Jul-24 10:32N 28°25' W 013°49'1 0.2
2015-Jul-24 05:28N 28°24' W 013°49'1415.1
2015-Jul-24 04:34N 28°12' W 013°56'1616.4
2015-Jul-24 03:33N 28°04' W 014°12'1515.4
2015-Jul-24 02:34N 28°01' W 014°29'1514.9
2015-Jul-24 01:33N 28°02' W 014°46'1515.1
2015-Jul-24 00:33N 28°04' W 015°03'1615.9
2015-Jul-23 23:33N 28°07' W 015°21'4 3.9
2015-Jul-23 22:33N 28°08' W 015°25'0 0.0
2015-Jul-23 21:33N 28°08' W 015°25'0 0.0
2015-Jul-23 20:33N 28°08' W 015°25'0 0.0
2015-Jul-23 19:33N 28°08' W 015°25'0 0.0
2015-Jul-23 18:33N 28°08' W 015°25'0 0.0
2015-Jul-23 17:33N 28°08' W 015°25'0 0.0
2015-Jul-23 16:33N 28°08' W 015°25'1110.8
2015-Jul-23 15:33N 28°05' W 015°13'1615.8
2015-Jul-23 14:34N 28°03' W 014°55'1716.5
2015-Jul-23 13:34N 28°02' W 014°37'1716.6
2015-Jul-23 12:34N 28°02' W 014°18'1716.8
2015-Jul-23 11:33N 28°10' W 014°01'20 3.2
2015-Jul-23 05:24N 28°27' W 013°49'1415.5
2015-Jul-23 04:30N 28°14' W 013°54'2116.5
2015-Jul-23 03:15N 28°03' W 014°14'1215.3
2015-Jul-23 02:29N 28°02' W 014°27'1915.0
2015-Jul-23 01:15N 28°03' W 014°48'1115.4
2015-Jul-23 00:33N 28°04' W 015°01'1615.8
2015-Jul-22 23:33N 28°07' W 015°18'6 5.9
2015-Jul-22 22:33N 28°08' W 015°25'0 0.0
2015-Jul-22 21:24N 28°08' W 015°25'0 0.0
2015-Jul-22 20:27N 28°08' W 015°25'0 0.0
2015-Jul-22 19:27N 28°08' W 015°25'0 0.0
2015-Jul-22 18:27N 28°08' W 015°25'0 0.0
2015-Jul-22 17:27N 28°08' W 015°25'0 0.0
2015-Jul-22 16:33N 28°08' W 015°25'1110.9
2015-Jul-22 15:33N 28°06' W 015°13'1615.8
2015-Jul-22 14:33N 28°04' W 014°55'1616.4
2015-Jul-22 13:34N 28°02' W 014°37'1716.5
2015-Jul-22 12:33N 28°02' W 014°18'1716.6
2015-Jul-22 11:34N 28°10' W 014°01'1716.5
2015-Jul-22 10:33N 28°23' W 013°50'4 0.8
2015-Jul-22 05:17N 28°27' W 013°49'1115.4
2015-Jul-22 04:33N 28°16' W 013°53'1616.1
2015-Jul-22 03:33N 28°07' W 014°07'2115.0
2015-Jul-22 02:10N 28°02' W 014°30'914.9
2015-Jul-22 01:33N 28°03' W 014°40'1515.4
2015-Jul-22 00:33N 28°04' W 014°58'1615.7
2015-Jul-21 23:33N 28°06' W 015°15'8 8.5
2015-Jul-21 22:34N 28°08' W 015°25'0 0.0
2015-Jul-21 21:34N 28°08' W 015°25'0 0.0
2015-Jul-21 20:33N 28°08' W 015°25'0 0.0
2015-Jul-21 19:33N 28°08' W 015°25'0 0.0
2015-Jul-21 18:33N 28°08' W 015°25'0 0.0
2015-Jul-21 17:33N 28°08' W 015°25'2 1.6
2015-Jul-21 16:33N 28°07' W 015°24'1515.4
2015-Jul-21 15:33N 28°05' W 015°06'1615.7
2015-Jul-21 14:33N 28°03' W 014°49'1616.1
2015-Jul-21 13:33N 28°02' W 014°31'1615.9
2015-Jul-21 12:32N 28°05' W 014°12'10 1.3
2015-Jul-21 04:28N 28°09' W 014°02'3114.7
2015-Jul-21 02:19N 28°02' W 014°37'1215.1
2015-Jul-21 01:34N 28°03' W 014°50'1515.2
2015-Jul-21 00:33N 28°05' W 015°07'1515.2
2015-Jul-20 23:33N 28°07' W 015°24'1 1.3
2015-Jul-20 22:34N 28°08' W 015°25'0 0.0
2015-Jul-20 21:34N 28°08' W 015°25'0 0.0
2015-Jul-20 20:34N 28°08' W 015°25'0 0.0
2015-Jul-20 19:34N 28°08' W 015°25'0 0.0
2015-Jul-20 18:34N 28°08' W 015°25'0 0.0
2015-Jul-20 17:33N 28°08' W 015°25'0 0.0
2015-Jul-20 16:33N 28°08' W 015°25'0 0.0
2015-Jul-20 15:33N 28°08' W 015°25'0 0.0
2015-Jul-20 14:33N 28°08' W 015°25'0 0.0
2015-Jul-20 13:33N 28°08' W 015°25'0 0.0
2015-Jul-20 12:33N 28°08' W 015°25'0 0.0
2015-Jul-20 11:33N 28°08' W 015°25'0 0.0
2015-Jul-20 10:33N 28°08' W 015°25'0 0.0
2015-Jul-20 09:34N 28°08' W 015°25'0 0.0
2015-Jul-19 14:33N 28°08' W 015°25'  

Dump ship's entire track history